createdAt,value
2023-02-22T06:49:55.526Z,26.29
2023-02-22T06:50:55.276Z,26.65
2023-02-22T06:51:55.492Z,26.53
2023-02-22T06:52:56.813Z,26.70
2023-02-22T06:53:55.148Z,26.70
2023-02-22T06:54:55.440Z,26.97
2023-02-22T06:55:55.414Z,27.48
2023-02-22T06:56:55.166Z,27.22
2023-02-22T06:57:55.164Z,26.41
2023-02-22T06:58:55.152Z,25.47
2023-02-22T06:59:55.151Z,25.91
2023-02-22T07:00:55.505Z,24.48
2023-02-22T07:01:55.162Z,24.13
2023-02-22T07:02:55.110Z,24.03
2023-02-22T07:03:55.170Z,23.68
2023-02-22T07:04:55.251Z,23.60
2023-02-22T07:05:55.280Z,23.40
2023-02-22T07:06:55.192Z,23.05
2023-02-22T07:07:55.222Z,22.86
2023-02-22T07:08:55.243Z,23.92
2023-02-22T07:09:55.299Z,24.01
2023-02-22T07:10:55.410Z,24.09
2023-02-22T07:11:55.392Z,24.08
2023-02-22T07:12:55.370Z,23.97
2023-02-22T07:13:55.310Z,23.86
2023-02-22T07:14:55.346Z,23.71
2023-02-22T07:15:56.056Z,23.76
2023-02-22T07:16:55.486Z,23.82
2023-02-22T07:17:55.476Z,23.78
2023-02-22T07:18:55.528Z,23.77
2023-02-22T07:19:55.590Z,23.68
2023-02-22T07:20:55.607Z,23.73
2023-02-22T07:21:55.655Z,23.50
2023-02-22T07:22:55.717Z,23.46
2023-02-22T07:23:55.743Z,23.35
2023-02-22T07:24:55.749Z,23.13
2023-02-22T07:25:55.978Z,23.21
2023-02-22T07:26:55.928Z,23.25
2023-02-22T07:27:55.743Z,23.37
2023-02-22T07:28:55.872Z,23.43
2023-02-22T07:30:56.592Z,23.27
2023-02-22T07:31:56.039Z,23.37
2023-02-22T07:32:56.114Z,23.21
2023-02-22T07:33:56.044Z,23.49
2023-02-22T07:34:56.196Z,23.16
2023-02-22T07:35:56.207Z,23.30
2023-02-22T07:36:56.518Z,23.22
2023-02-22T07:38:56.276Z,23.14
2023-02-22T07:39:56.329Z,23.36
2023-02-22T07:40:56.642Z,23.28
2023-02-22T07:41:56.271Z,23.15
2023-02-22T07:42:57.178Z,22.92
2023-02-22T07:43:56.265Z,22.79
2023-02-22T07:44:56.299Z,23.29
2023-02-22T07:45:56.296Z,23.21
2023-02-22T07:48:17.394Z,23.50
2023-02-22T07:49:15.204Z,22.88
2023-02-22T07:50:15.571Z,22.46
2023-02-22T07:51:15.465Z,22.26
2023-02-22T07:52:15.340Z,22.02
2023-02-22T07:53:15.422Z,21.71
2023-02-22T08:03:53.520Z,20.12
2023-02-22T08:32:50.302Z,22.05
2023-02-22T08:47:46.710Z,20.20
2023-02-22T08:48:46.904Z,19.94
2023-02-22T08:49:46.826Z,19.80
2023-02-22T08:50:47.672Z,19.56
2023-02-22T08:51:47.093Z,19.73
2023-02-22T08:52:46.789Z,19.72
2023-02-22T08:53:46.829Z,19.50
2023-02-22T08:54:46.933Z,19.34
2023-02-22T08:55:46.964Z,19.17
2023-02-22T08:56:47.047Z,19.13
2023-02-22T08:57:46.959Z,19.06
2023-02-22T08:58:46.956Z,19.02
2023-02-22T08:59:47.286Z,18.77
2023-02-22T09:02:05.993Z,18.70
2023-02-22T09:03:05.915Z,18.96
2023-02-22T09:04:05.934Z,19.08
2023-02-22T09:05:05.952Z,18.70
2023-02-22T09:06:06.122Z,18.61
2023-02-22T09:07:05.905Z,18.83
2023-02-22T09:08:05.897Z,19.56
2023-02-22T09:09:05.905Z,19.59
2023-02-22T09:10:05.852Z,19.16
2023-02-22T09:11:05.865Z,19.09
2023-02-22T09:12:05.863Z,19.12
2023-02-22T09:13:05.879Z,18.91
2023-02-22T09:45:45.188Z,18.32
2023-02-22T09:46:44.608Z,18.08
2023-02-22T09:54:22.903Z,19.91
2023-02-22T09:55:22.818Z,20.63
2023-02-22T09:56:22.746Z,20.42
2023-02-22T10:01:43.865Z,19.96
2023-02-22T10:06:10.680Z,19.78
2023-02-22T10:07:10.866Z,19.60
2023-02-22T10:11:19.524Z,19.49
2023-02-22T10:13:37.422Z,19.37
2023-02-22T10:14:37.807Z,19.41
2023-02-22T10:15:37.986Z,19.50
2023-02-22T10:16:37.373Z,18.95
2023-02-22T10:17:37.289Z,19.10
2023-02-22T10:18:37.240Z,19.49
2023-02-22T10:19:37.263Z,19.47
2023-02-22T10:20:37.869Z,19.40
2023-02-22T10:22:56.439Z,19.21
2023-02-22T10:23:57.841Z,19.18
2023-02-22T10:26:59.351Z,19.34
2023-02-22T10:30:38.658Z,20.09
2023-02-22T10:44:07.244Z,21.43
2023-02-22T10:45:06.876Z,21.34
2023-02-22T10:46:05.479Z,20.71
2023-02-22T10:48:05.381Z,19.98
2023-02-22T10:51:43.880Z,19.72
2023-02-22T10:58:40.357Z,19.60
2023-02-22T11:04:08.049Z,19.87
2023-02-22T11:06:52.675Z,20.07
2023-02-22T11:09:08.666Z,21.28
2023-02-22T11:10:08.236Z,20.88
2023-02-22T11:11:08.267Z,20.50
2023-02-22T11:12:08.408Z,20.30
2023-02-22T11:13:08.194Z,20.27
2023-02-22T11:14:08.200Z,20.23
2023-02-22T11:15:08.191Z,20.20
2023-02-22T11:16:14.124Z,20.26
2023-02-22T11:24:24.305Z,21.00
2023-02-22T11:29:51.239Z,20.99
2023-02-22T13:24:22.142Z,23.73
2023-02-22T13:25:22.154Z,23.74
2023-02-22T13:26:21.894Z,23.68
2023-02-22T13:43:40.686Z,25.52
2023-02-22T13:51:40.574Z,23.22
2023-02-22T13:52:40.504Z,23.40
2023-02-22T13:53:40.598Z,23.55
2023-02-22T13:54:40.578Z,23.73
2023-02-22T13:55:40.661Z,23.92
2023-02-22T13:56:40.657Z,23.44
2023-02-22T13:57:40.704Z,19.26
2023-02-22T13:58:40.779Z,22.10
2023-02-22T13:59:40.764Z,23.05
2023-02-22T14:00:40.796Z,23.70
2023-02-22T14:01:40.940Z,23.78
2023-02-22T14:02:40.871Z,24.57
2023-02-22T14:03:41.435Z,25.01
2023-02-22T14:04:41.072Z,24.89
2023-02-22T14:05:42.101Z,24.93
2023-02-22T14:06:41.071Z,25.38
2023-02-22T14:07:41.101Z,25.11
2023-02-22T14:08:41.964Z,25.37
2023-02-22T14:09:41.207Z,26.20
2023-02-22T14:44:40.598Z,24.18
2023-02-22T14:45:40.582Z,23.90
2023-02-22T14:46:40.626Z,23.64
2023-02-22T14:47:40.642Z,23.59
2023-02-22T14:48:40.831Z,23.77
2023-02-22T14:49:40.698Z,23.50
2023-02-22T14:50:40.952Z,23.60
2023-02-22T14:51:40.774Z,23.68
2023-02-22T14:52:40.985Z,23.67
2023-02-22T14:53:40.860Z,23.73
2023-02-22T14:54:40.971Z,23.74
2023-02-22T14:55:41.056Z,23.71
2023-02-22T14:56:41.061Z,23.70
2023-02-22T14:57:41.098Z,23.81
2023-02-22T14:58:41.168Z,23.98
2023-02-22T14:59:41.137Z,24.21
2023-02-22T15:00:41.184Z,24.03
2023-02-22T15:02:01.750Z,24.49
2023-02-22T15:02:42.257Z,24.71
2023-02-22T15:03:41.382Z,24.82
2023-02-22T15:04:41.260Z,24.86
2023-02-22T15:05:41.184Z,24.88
2023-02-22T15:06:41.173Z,24.71
2023-02-22T15:07:41.173Z,24.72
2023-02-22T15:08:41.193Z,24.81
2023-02-22T15:09:41.170Z,24.78
2023-02-22T15:10:41.177Z,24.75
2023-02-22T15:11:41.216Z,24.52
2023-02-22T15:12:41.180Z,24.65
2023-02-22T15:13:41.133Z,24.35
2023-02-22T15:14:41.128Z,24.51
2023-02-22T15:15:41.090Z,20.09
2023-02-22T15:16:41.154Z,22.78
2023-02-22T15:17:41.102Z,23.01
2023-02-22T15:18:41.154Z,23.90
2023-02-22T15:19:41.166Z,17.72
2023-02-22T15:20:41.181Z,17.47
2023-02-22T15:21:41.290Z,18.20
2023-02-22T15:22:41.354Z,19.37
2023-02-22T15:23:41.421Z,20.92
2023-02-22T15:24:42.325Z,21.48
2023-02-22T15:25:41.596Z,21.97
2023-02-22T15:26:51.813Z,22.09
2023-02-22T15:27:42.638Z,22.08
2023-02-22T15:28:41.611Z,22.22
2023-02-22T15:31:00.966Z,23.08
2023-02-22T15:35:00.568Z,23.13
2023-02-22T15:36:00.361Z,23.34
2023-02-22T15:37:00.400Z,23.22
2023-02-22T15:38:00.406Z,23.10
2023-02-22T15:39:00.467Z,22.95
2023-02-22T15:40:00.347Z,22.78
2023-02-22T15:41:00.507Z,23.27
2023-02-22T15:43:00.369Z,24.32
2023-02-22T15:44:03.444Z,23.43
2023-02-22T15:45:01.365Z,23.08
2023-02-22T15:46:00.341Z,22.85
2023-02-22T15:47:00.283Z,22.58
2023-02-22T15:48:00.298Z,22.83
2023-02-22T15:49:00.314Z,22.98
2023-02-22T15:50:00.422Z,24.03
2023-02-22T15:51:00.373Z,24.19
2023-02-22T15:52:00.291Z,24.14
2023-02-22T15:53:00.328Z,23.51
2023-02-22T15:54:00.334Z,23.54
2023-02-22T15:55:00.273Z,23.43
2023-02-22T15:56:00.327Z,24.37
2023-02-22T15:57:00.591Z,23.97
2023-02-22T15:58:00.368Z,24.80
2023-02-22T15:59:00.345Z,24.64
2023-02-22T16:00:00.395Z,24.90
2023-02-22T16:01:00.493Z,26.67
2023-02-22T16:02:00.565Z,28.50
2023-02-22T16:03:00.517Z,28.24
2023-02-22T16:04:00.537Z,27.77
2023-02-22T16:05:00.715Z,27.17
2023-02-22T16:06:00.621Z,26.11
2023-02-22T16:07:00.652Z,26.51
2023-02-22T16:08:00.696Z,27.18
2023-02-22T16:09:00.848Z,27.10
2023-02-22T16:10:00.798Z,26.90
2023-02-22T16:11:00.856Z,26.78
2023-02-22T16:12:00.864Z,26.31
2023-02-22T16:13:00.912Z,26.52
2023-02-22T16:14:00.992Z,26.12
2023-02-22T16:15:01.025Z,25.92
2023-02-22T16:16:01.125Z,25.81
2023-02-22T16:17:01.121Z,25.51
2023-02-22T16:18:02.665Z,25.87
2023-02-22T16:19:01.210Z,25.58
2023-02-22T16:20:01.242Z,25.37
2023-02-22T16:21:01.274Z,25.09
2023-02-22T16:22:01.333Z,25.49
2023-02-22T16:23:01.368Z,25.41
2023-02-22T16:24:14.868Z,25.21
2023-02-22T16:25:02.480Z,25.35
2023-02-22T16:26:01.383Z,25.59
2023-02-22T21:30:34.062Z,24.02
2023-02-22T21:31:33.560Z,24.04
2023-02-22T21:32:33.503Z,23.99
2023-02-22T21:33:33.534Z,23.99
2023-02-22T21:34:33.456Z,23.92
2023-02-22T21:35:34.519Z,23.92
2023-02-22T21:36:33.608Z,23.91
2023-02-22T21:37:33.527Z,23.91
2023-02-22T21:38:33.517Z,23.95
2023-02-22T21:39:33.592Z,23.91
2023-02-22T21:40:33.690Z,23.95
2023-02-22T21:41:33.721Z,23.95
2023-02-22T21:42:33.796Z,23.92
2023-02-22T21:43:33.816Z,23.92
2023-02-22T21:44:33.897Z,23.85
2023-02-22T21:45:34.017Z,23.87
2023-02-22T21:46:34.002Z,23.85
2023-02-22T21:47:34.053Z,23.78
2023-02-22T21:48:34.101Z,23.80
2023-02-22T22:56:22.050Z,23.41
2023-02-22T23:52:06.984Z,23.14
2023-02-22T23:53:07.037Z,23.13
2023-02-22T23:54:07.076Z,23.04
2023-02-22T23:55:07.141Z,23.13
2023-02-22T23:56:07.152Z,23.07
2023-02-22T23:57:07.193Z,23.14
2023-02-22T23:58:07.212Z,23.05
2023-02-22T23:59:07.296Z,23.13
